sensor_id;sensor_type;location;lat;lon;timestamp;temperature;humidity
24802;DHT22;12898;50.520;12.152;2023-12-29T00:01:59;7.60;99.90
24802;DHT22;12898;50.520;12.152;2023-12-29T00:04:28;7.60;99.90
24802;DHT22;12898;50.520;12.152;2023-12-29T00:06:54;7.60;99.90
24802;DHT22;12898;50.520;12.152;2023-12-29T00:09:20;7.50;99.90
24802;DHT22;12898;50.520;12.152;2023-12-29T00:11:47;7.50;99.90
24802;DHT22;12898;50.520;12.152;2023-12-29T00:14:14;7.50;99.90
24802;DHT22;12898;50.520;12.152;2023-12-29T00:16:40;7.50;99.90
24802;DHT22;12898;50.520;12.152;2023-12-29T00:19:06;7.50;99.90
24802;DHT22;12898;50.520;12.152;2023-12-29T00:21:32;7.50;99.90
24802;DHT22;12898;50.520;12.152;2023-12-29T00:23:57;7.40;99.90
24802;DHT22;12898;50.520;12.152;2023-12-29T00:26:23;7.40;99.90
24802;DHT22;12898;50.520;12.152;2023-12-29T00:28:49;7.40;99.90
24802;DHT22;12898;50.520;12.152;2023-12-29T00:31:15;7.40;99.90
24802;DHT22;12898;50.520;12.152;2023-12-29T00:33:42;7.40;99.90
24802;DHT22;12898;50.520;12.152;2023-12-29T00:36:13;7.40;99.90
24802;DHT22;12898;50.520;12.152;2023-12-29T00:38:40;7.30;99.90
24802;DHT22;12898;50.520;12.152;2023-12-29T00:41:05;7.30;99.90
24802;DHT22;12898;50.520;12.152;2023-12-29T00:43:32;7.30;99.90
24802;DHT22;12898;50.520;12.152;2023-12-29T00:45:58;7.20;99.90
24802;DHT22;12898;50.520;12.152;2023-12-29T00:48:23;7.10;99.90
24802;DHT22;12898;50.520;12.152;2023-12-29T00:50:49;7.20;99.90
24802;DHT22;12898;50.520;12.152;2023-12-29T00:53:15;7.20;99.90
24802;DHT22;12898;50.520;12.152;2023-12-29T00:55:40;7.30;99.90
24802;DHT22;12898;50.520;12.152;2023-12-29T00:58:06;7.30;99.90
24802;DHT22;12898;50.520;12.152;2023-12-29T01:00:32;7.40;99.90
24802;DHT22;12898;50.520;12.152;2023-12-29T01:02:58;7.30;99.90
24802;DHT22;12898;50.520;12.152;2023-12-29T01:05:24;7.30;99.90
24802;DHT22;12898;50.520;12.152;2023-12-29T01:07:50;7.40;99.90
24802;DHT22;12898;50.520;12.152;2023-12-29T01:10:15;7.30;99.90
24802;DHT22;12898;50.520;12.152;2023-12-29T01:12:41;7.30;99.90
24802;DHT22;12898;50.520;12.152;2023-12-29T01:15:07;7.40;99.90
24802;DHT22;12898;50.520;12.152;2023-12-29T01:17:33;7.40;99.90
24802;DHT22;12898;50.520;12.152;2023-12-29T01:19:59;7.40;99.90
24802;DHT22;12898;50.520;12.152;2023-12-29T01:22:25;7.30;99.90
24802;DHT22;12898;50.520;12.152;2023-12-29T01:24:50;7.50;99.90
24802;DHT22;12898;50.520;12.152;2023-12-29T01:27:16;7.40;99.90
24802;DHT22;12898;50.520;12.152;2023-12-29T01:29:42;7.50;99.90
24802;DHT22;12898;50.520;12.152;2023-12-29T01:32:08;7.50;99.90
24802;DHT22;12898;50.520;12.152;2023-12-29T01:34:34;7.50;99.90
24802;DHT22;12898;50.520;12.152;2023-12-29T01:37:01;7.50;99.90
24802;DHT22;12898;50.520;12.152;2023-12-29T01:39:29;7.50;99.90
24802;DHT22;12898;50.520;12.152;2023-12-29T01:41:55;7.50;99.90
24802;DHT22;12898;50.520;12.152;2023-12-29T01:44:22;7.50;99.90
24802;DHT22;12898;50.520;12.152;2023-12-29T01:46:54;7.50;99.90
24802;DHT22;12898;50.520;12.152;2023-12-29T01:49:21;7.50;99.90
24802;DHT22;12898;50.520;12.152;2023-12-29T01:51:50;7.50;99.90
24802;DHT22;12898;50.520;12.152;2023-12-29T01:54:20;7.50;99.90
24802;DHT22;12898;50.520;12.152;2023-12-29T01:56:47;7.50;99.90
24802;DHT22;12898;50.520;12.152;2023-12-29T01:59:14;7.50;99.90
24802;DHT22;12898;50.520;12.152;2023-12-29T02:01:40;7.60;99.90
24802;DHT22;12898;50.520;12.152;2023-12-29T02:04:07;7.60;99.90
24802;DHT22;12898;50.520;12.152;2023-12-29T02:06:34;7.60;99.90
24802;DHT22;12898;50.520;12.152;2023-12-29T02:09:02;7.60;99.90
24802;DHT22;12898;50.520;12.152;2023-12-29T02:11:29;7.60;99.90
24802;DHT22;12898;50.520;12.152;2023-12-29T02:13:55;7.70;99.90
24802;DHT22;12898;50.520;12.152;2023-12-29T02:16:40;7.70;99.90
24802;DHT22;12898;50.520;12.152;2023-12-29T02:19:20;7.70;99.90
24802;DHT22;12898;50.520;12.152;2023-12-29T02:21:50;7.70;99.90
24802;DHT22;12898;50.520;12.152;2023-12-29T02:24:16;7.70;99.90
24802;DHT22;12898;50.520;12.152;2023-12-29T02:26:45;7.70;99.90
24802;DHT22;12898;50.520;12.152;2023-12-29T02:29:15;7.70;99.90
24802;DHT22;12898;50.520;12.152;2023-12-29T02:31:45;7.60;99.90
24802;DHT22;12898;50.520;12.152;2023-12-29T02:34:18;7.60;99.90
24802;DHT22;12898;50.520;12.152;2023-12-29T02:36:45;7.60;99.90
24802;DHT22;12898;50.520;12.152;2023-12-29T02:39:12;7.60;99.90
24802;DHT22;12898;50.520;12.152;2023-12-29T02:41:38;7.50;99.90
24802;DHT22;12898;50.520;12.152;2023-12-29T02:44:04;7.60;99.90
24802;DHT22;12898;50.520;12.152;2023-12-29T02:46:30;7.60;99.90
24802;DHT22;12898;50.520;12.152;2023-12-29T02:48:56;7.60;99.90
24802;DHT22;12898;50.520;12.152;2023-12-29T02:51:21;7.70;99.90
24802;DHT22;12898;50.520;12.152;2023-12-29T02:53:47;7.70;99.90
24802;DHT22;12898;50.520;12.152;2023-12-29T02:56:14;7.60;99.90
24802;DHT22;12898;50.520;12.152;2023-12-29T02:58:40;7.80;99.90
24802;DHT22;12898;50.520;12.152;2023-12-29T03:01:06;7.80;99.90
24802;DHT22;12898;50.520;12.152;2023-12-29T03:03:31;7.80;99.90
24802;DHT22;12898;50.520;12.152;2023-12-29T03:05:57;7.80;99.90
24802;DHT22;12898;50.520;12.152;2023-12-29T03:08:23;7.90;99.90
24802;DHT22;12898;50.520;12.152;2023-12-29T03:10:49;7.90;99.90
24802;DHT22;12898;50.520;12.152;2023-12-29T03:13:14;7.90;99.90
24802;DHT22;12898;50.520;12.152;2023-12-29T03:15:40;7.90;99.90
24802;DHT22;12898;50.520;12.152;2023-12-29T03:18:06;7.90;99.90
24802;DHT22;12898;50.520;12.152;2023-12-29T03:20:32;7.80;99.90
24802;DHT22;12898;50.520;12.152;2023-12-29T03:22:57;7.90;99.90
24802;DHT22;12898;50.520;12.152;2023-12-29T03:25:23;7.80;99.90
24802;DHT22;12898;50.520;12.152;2023-12-29T03:27:49;7.80;99.90
24802;DHT22;12898;50.520;12.152;2023-12-29T03:30:15;7.80;99.90
24802;DHT22;12898;50.520;12.152;2023-12-29T03:32:40;7.90;99.90
24802;DHT22;12898;50.520;12.152;2023-12-29T03:35:06;7.90;99.90
24802;DHT22;12898;50.520;12.152;2023-12-29T03:37:32;7.90;99.90
24802;DHT22;12898;50.520;12.152;2023-12-29T03:39:58;7.80;99.90
24802;DHT22;12898;50.520;12.152;2023-12-29T03:42:23;7.80;99.90
24802;DHT22;12898;50.520;12.152;2023-12-29T03:44:49;7.80;99.90
24802;DHT22;12898;50.520;12.152;2023-12-29T03:47:15;7.80;99.90
24802;DHT22;12898;50.520;12.152;2023-12-29T03:49:41;7.90;99.90
24802;DHT22;12898;50.520;12.152;2023-12-29T03:52:07;7.80;99.90
24802;DHT22;12898;50.520;12.152;2023-12-29T03:54:32;7.90;99.90
24802;DHT22;12898;50.520;12.152;2023-12-29T03:56:58;7.90;99.90
24802;DHT22;12898;50.520;12.152;2023-12-29T03:59:24;7.90;99.90
24802;DHT22;12898;50.520;12.152;2023-12-29T04:01:49;8.00;99.90
24802;DHT22;12898;50.520;12.152;2023-12-29T04:04:15;8.00;99.90
24802;DHT22;12898;50.520;12.152;2023-12-29T04:06:41;7.90;99.90
24802;DHT22;12898;50.520;12.152;2023-12-29T04:09:07;7.90;99.90
24802;DHT22;12898;50.520;12.152;2023-12-29T04:11:33;7.80;99.90
24802;DHT22;12898;50.520;12.152;2023-12-29T04:13:59;7.90;99.90
24802;DHT22;12898;50.520;12.152;2023-12-29T04:16:24;7.90;99.90
24802;DHT22;12898;50.520;12.152;2023-12-29T04:18:50;7.80;99.90
24802;DHT22;12898;50.520;12.152;2023-12-29T04:21:16;7.90;99.90
24802;DHT22;12898;50.520;12.152;2023-12-29T04:23:42;7.90;99.90
24802;DHT22;12898;50.520;12.152;2023-12-29T04:26:08;7.80;99.90
24802;DHT22;12898;50.520;12.152;2023-12-29T04:28:34;7.80;99.90
24802;DHT22;12898;50.520;12.152;2023-12-29T04:30:59;7.80;99.90
24802;DHT22;12898;50.520;12.152;2023-12-29T04:33:25;7.80;99.90
24802;DHT22;12898;50.520;12.152;2023-12-29T04:35:51;7.90;99.90
24802;DHT22;12898;50.520;12.152;2023-12-29T04:38:17;8.00;99.90
24802;DHT22;12898;50.520;12.152;2023-12-29T04:40:45;7.90;99.90
24802;DHT22;12898;50.520;12.152;2023-12-29T04:43:12;7.80;99.90
24802;DHT22;12898;50.520;12.152;2023-12-29T04:45:38;7.80;99.90
24802;DHT22;12898;50.520;12.152;2023-12-29T04:48:04;7.90;99.90
24802;DHT22;12898;50.520;12.152;2023-12-29T04:50:30;7.90;99.90
24802;DHT22;12898;50.520;12.152;2023-12-29T04:52:56;7.90;99.90
24802;DHT22;12898;50.520;12.152;2023-12-29T04:55:22;7.90;99.90
24802;DHT22;12898;50.520;12.152;2023-12-29T04:57:47;7.90;99.90
24802;DHT22;12898;50.520;12.152;2023-12-29T05:00:13;8.00;99.90
24802;DHT22;12898;50.520;12.152;2023-12-29T05:02:39;7.90;99.90
24802;DHT22;12898;50.520;12.152;2023-12-29T05:05:05;7.90;99.90
24802;DHT22;12898;50.520;12.152;2023-12-29T05:07:31;8.00;99.90
24802;DHT22;12898;50.520;12.152;2023-12-29T05:09:57;7.90;99.90
24802;DHT22;12898;50.520;12.152;2023-12-29T05:12:23;7.90;99.90
24802;DHT22;12898;50.520;12.152;2023-12-29T05:14:48;7.90;99.90
24802;DHT22;12898;50.520;12.152;2023-12-29T05:17:14;8.00;99.90
24802;DHT22;12898;50.520;12.152;2023-12-29T05:19:40;7.90;99.90
24802;DHT22;12898;50.520;12.152;2023-12-29T05:22:06;7.90;99.90
24802;DHT22;12898;50.520;12.152;2023-12-29T05:24:31;7.90;99.90
24802;DHT22;12898;50.520;12.152;2023-12-29T05:26:57;7.90;99.90
24802;DHT22;12898;50.520;12.152;2023-12-29T05:29:23;7.90;99.90
24802;DHT22;12898;50.520;12.152;2023-12-29T05:31:49;7.90;99.90
24802;DHT22;12898;50.520;12.152;2023-12-29T05:34:15;7.90;99.90
24802;DHT22;12898;50.520;12.152;2023-12-29T05:36:41;7.90;99.90
24802;DHT22;12898;50.520;12.152;2023-12-29T05:39:07;7.90;99.90
24802;DHT22;12898;50.520;12.152;2023-12-29T05:41:33;7.90;99.90
24802;DHT22;12898;50.520;12.152;2023-12-29T05:43:59;7.90;99.90
24802;DHT22;12898;50.520;12.152;2023-12-29T05:46:26;7.90;99.90
24802;DHT22;12898;50.520;12.152;2023-12-29T05:48:52;8.00;99.90
24802;DHT22;12898;50.520;12.152;2023-12-29T05:51:18;7.90;99.90
24802;DHT22;12898;50.520;12.152;2023-12-29T05:53:44;7.90;99.90
24802;DHT22;12898;50.520;12.152;2023-12-29T05:56:13;7.80;99.90
24802;DHT22;12898;50.520;12.152;2023-12-29T05:58:43;7.80;99.90
24802;DHT22;12898;50.520;12.152;2023-12-29T06:01:09;7.80;99.90
24802;DHT22;12898;50.520;12.152;2023-12-29T06:03:35;7.80;99.90
24802;DHT22;12898;50.520;12.152;2023-12-29T06:06:02;7.80;99.90
24802;DHT22;12898;50.520;12.152;2023-12-29T06:08:27;7.80;99.90
24802;DHT22;12898;50.520;12.152;2023-12-29T06:10:53;7.90;99.90
24802;DHT22;12898;50.520;12.152;2023-12-29T06:13:19;7.90;99.90
24802;DHT22;12898;50.520;12.152;2023-12-29T06:15:45;7.90;99.90
24802;DHT22;12898;50.520;12.152;2023-12-29T06:18:11;7.90;99.90
24802;DHT22;12898;50.520;12.152;2023-12-29T06:20:36;7.90;99.90
24802;DHT22;12898;50.520;12.152;2023-12-29T06:23:02;7.90;99.90
24802;DHT22;12898;50.520;12.152;2023-12-29T06:25:28;8.00;99.90
24802;DHT22;12898;50.520;12.152;2023-12-29T06:27:54;8.00;99.90
24802;DHT22;12898;50.520;12.152;2023-12-29T06:30:20;8.00;99.90
24802;DHT22;12898;50.520;12.152;2023-12-29T06:32:46;8.00;99.90
24802;DHT22;12898;50.520;12.152;2023-12-29T06:35:12;8.00;99.90
24802;DHT22;12898;50.520;12.152;2023-12-29T06:37:39;7.90;99.90
24802;DHT22;12898;50.520;12.152;2023-12-29T06:40:07;7.90;99.90
24802;DHT22;12898;50.520;12.152;2023-12-29T06:42:33;7.90;99.90
24802;DHT22;12898;50.520;12.152;2023-12-29T06:44:59;7.80;99.90
24802;DHT22;12898;50.520;12.152;2023-12-29T06:47:24;7.80;99.90
24802;DHT22;12898;50.520;12.152;2023-12-29T06:49:50;7.80;99.90
24802;DHT22;12898;50.520;12.152;2023-12-29T06:52:16;7.70;99.90
24802;DHT22;12898;50.520;12.152;2023-12-29T06:54:42;7.70;99.90
24802;DHT22;12898;50.520;12.152;2023-12-29T06:57:08;7.70;99.90
24802;DHT22;12898;50.520;12.152;2023-12-29T06:59:34;7.70;99.90
24802;DHT22;12898;50.520;12.152;2023-12-29T07:02:00;7.70;99.90
24802;DHT22;12898;50.520;12.152;2023-12-29T07:04:25;7.80;99.90
24802;DHT22;12898;50.520;12.152;2023-12-29T07:06:51;7.80;99.90
24802;DHT22;12898;50.520;12.152;2023-12-29T07:09:17;7.80;99.90
24802;DHT22;12898;50.520;12.152;2023-12-29T07:11:47;7.80;99.90
24802;DHT22;12898;50.520;12.152;2023-12-29T07:14:14;7.90;99.90
24802;DHT22;12898;50.520;12.152;2023-12-29T07:16:40;7.90;99.90
24802;DHT22;12898;50.520;12.152;2023-12-29T07:19:06;7.80;99.90
24802;DHT22;12898;50.520;12.152;2023-12-29T07:21:31;7.90;99.90
24802;DHT22;12898;50.520;12.152;2023-12-29T07:23:57;7.80;99.90
24802;DHT22;12898;50.520;12.152;2023-12-29T07:26:23;7.80;99.90
24802;DHT22;12898;50.520;12.152;2023-12-29T07:28:49;7.90;99.90
24802;DHT22;12898;50.520;12.152;2023-12-29T07:31:20;7.90;99.90
24802;DHT22;12898;50.520;12.152;2023-12-29T07:33:46;7.90;99.90
24802;DHT22;12898;50.520;12.152;2023-12-29T07:36:12;7.90;99.90
24802;DHT22;12898;50.520;12.152;2023-12-29T07:38:38;7.90;99.90
24802;DHT22;12898;50.520;12.152;2023-12-29T07:41:04;7.90;99.90
24802;DHT22;12898;50.520;12.152;2023-12-29T07:43:31;7.90;99.90
24802;DHT22;12898;50.520;12.152;2023-12-29T07:45:57;7.90;99.90
24802;DHT22;12898;50.520;12.152;2023-12-29T07:48:23;8.00;99.90
24802;DHT22;12898;50.520;12.152;2023-12-29T07:50:49;8.00;99.90
24802;DHT22;12898;50.520;12.152;2023-12-29T07:53:15;8.10;99.90
24802;DHT22;12898;50.520;12.152;2023-12-29T07:55:41;8.10;99.90
24802;DHT22;12898;50.520;12.152;2023-12-29T07:58:08;8.20;99.90
24802;DHT22;12898;50.520;12.152;2023-12-29T08:00:36;8.20;99.90
24802;DHT22;12898;50.520;12.152;2023-12-29T08:03:02;8.20;99.90
24802;DHT22;12898;50.520;12.152;2023-12-29T08:05:28;8.30;99.90
24802;DHT22;12898;50.520;12.152;2023-12-29T08:07:54;8.30;99.90
24802;DHT22;12898;50.520;12.152;2023-12-29T08:10:20;8.30;99.90
24802;DHT22;12898;50.520;12.152;2023-12-29T08:12:46;8.30;99.90
24802;DHT22;12898;50.520;12.152;2023-12-29T08:15:12;8.30;99.90
24802;DHT22;12898;50.520;12.152;2023-12-29T08:17:37;8.40;99.90
24802;DHT22;12898;50.520;12.152;2023-12-29T08:20:04;8.40;99.90
24802;DHT22;12898;50.520;12.152;2023-12-29T08:22:31;8.30;99.90
24802;DHT22;12898;50.520;12.152;2023-12-29T08:24:58;8.40;99.90
24802;DHT22;12898;50.520;12.152;2023-12-29T08:27:25;8.40;99.90
24802;DHT22;12898;50.520;12.152;2023-12-29T08:29:53;8.40;99.90
24802;DHT22;12898;50.520;12.152;2023-12-29T08:32:19;8.40;99.90
24802;DHT22;12898;50.520;12.152;2023-12-29T08:34:47;8.30;99.90
24802;DHT22;12898;50.520;12.152;2023-12-29T08:37:12;8.30;99.90
24802;DHT22;12898;50.520;12.152;2023-12-29T08:39:41;8.30;99.90
24802;DHT22;12898;50.520;12.152;2023-12-29T08:42:06;8.40;99.90
24802;DHT22;12898;50.520;12.152;2023-12-29T08:44:32;8.30;99.90
24802;DHT22;12898;50.520;12.152;2023-12-29T08:46:58;8.40;99.90
24802;DHT22;12898;50.520;12.152;2023-12-29T08:49:24;8.40;99.90
24802;DHT22;12898;50.520;12.152;2023-12-29T08:51:49;8.40;99.90
24802;DHT22;12898;50.520;12.152;2023-12-29T08:54:15;8.40;99.90
24802;DHT22;12898;50.520;12.152;2023-12-29T08:56:41;8.40;99.90
24802;DHT22;12898;50.520;12.152;2023-12-29T08:59:07;8.40;99.90
24802;DHT22;12898;50.520;12.152;2023-12-29T09:01:32;8.30;99.90
24802;DHT22;12898;50.520;12.152;2023-12-29T09:03:58;8.40;99.90
24802;DHT22;12898;50.520;12.152;2023-12-29T09:06:25;8.40;99.90
24802;DHT22;12898;50.520;12.152;2023-12-29T09:08:51;8.40;99.90
24802;DHT22;12898;50.520;12.152;2023-12-29T09:11:17;8.40;99.90
24802;DHT22;12898;50.520;12.152;2023-12-29T09:13:42;8.50;99.90
24802;DHT22;12898;50.520;12.152;2023-12-29T09:16:08;8.50;99.90
24802;DHT22;12898;50.520;12.152;2023-12-29T09:18:34;8.50;99.90
24802;DHT22;12898;50.520;12.152;2023-12-29T09:21:00;8.50;99.90
24802;DHT22;12898;50.520;12.152;2023-12-29T09:23:25;8.60;99.90
24802;DHT22;12898;50.520;12.152;2023-12-29T09:25:51;8.60;99.90
24802;DHT22;12898;50.520;12.152;2023-12-29T09:28:17;8.60;99.90
24802;DHT22;12898;50.520;12.152;2023-12-29T09:30:42;8.60;99.90
24802;DHT22;12898;50.520;12.152;2023-12-29T09:33:08;8.60;99.90
24802;DHT22;12898;50.520;12.152;2023-12-29T09:35:38;8.60;99.90
24802;DHT22;12898;50.520;12.152;2023-12-29T09:38:04;8.70;99.90
24802;DHT22;12898;50.520;12.152;2023-12-29T09:40:30;8.70;99.90
24802;DHT22;12898;50.520;12.152;2023-12-29T09:42:56;8.60;99.90
24802;DHT22;12898;50.520;12.152;2023-12-29T09:45:24;8.70;99.90
24802;DHT22;12898;50.520;12.152;2023-12-29T09:47:51;8.70;99.90
24802;DHT22;12898;50.520;12.152;2023-12-29T09:50:19;8.70;99.90
24802;DHT22;12898;50.520;12.152;2023-12-29T09:52:48;8.80;99.90
24802;DHT22;12898;50.520;12.152;2023-12-29T09:55:15;8.80;99.90
24802;DHT22;12898;50.520;12.152;2023-12-29T09:57:41;8.80;99.90
24802;DHT22;12898;50.520;12.152;2023-12-29T10:00:12;8.80;99.90
24802;DHT22;12898;50.520;12.152;2023-12-29T10:02:38;8.80;99.90
24802;DHT22;12898;50.520;12.152;2023-12-29T10:05:04;8.90;99.90
24802;DHT22;12898;50.520;12.152;2023-12-29T10:07:37;8.90;99.90
24802;DHT22;12898;50.520;12.152;2023-12-29T10:10:05;8.90;99.90
24802;DHT22;12898;50.520;12.152;2023-12-29T10:12:35;8.80;99.90
24802;DHT22;12898;50.520;12.152;2023-12-29T10:15:29;8.90;99.90
24802;DHT22;12898;50.520;12.152;2023-12-29T10:18:20;8.80;99.90
24802;DHT22;12898;50.520;12.152;2023-12-29T10:21:21;8.80;99.90
24802;DHT22;12898;50.520;12.152;2023-12-29T10:23:56;8.80;99.90
24802;DHT22;12898;50.520;12.152;2023-12-29T10:26:28;8.80;99.90
24802;DHT22;12898;50.520;12.152;2023-12-29T10:28:55;8.80;99.90
24802;DHT22;12898;50.520;12.152;2023-12-29T10:31:22;8.80;99.90
24802;DHT22;12898;50.520;12.152;2023-12-29T10:33:48;8.80;99.90
24802;DHT22;12898;50.520;12.152;2023-12-29T10:36:17;8.90;99.90
24802;DHT22;12898;50.520;12.152;2023-12-29T10:38:43;8.90;99.90
24802;DHT22;12898;50.520;12.152;2023-12-29T10:41:17;8.90;99.90
24802;DHT22;12898;50.520;12.152;2023-12-29T10:43:45;8.90;99.90
24802;DHT22;12898;50.520;12.152;2023-12-29T10:46:18;8.90;99.90
24802;DHT22;12898;50.520;12.152;2023-12-29T10:48:43;9.00;99.90
24802;DHT22;12898;50.520;12.152;2023-12-29T10:51:10;9.00;99.90
24802;DHT22;12898;50.520;12.152;2023-12-29T10:53:36;9.00;99.90
24802;DHT22;12898;50.520;12.152;2023-12-29T10:56:02;9.00;99.90
24802;DHT22;12898;50.520;12.152;2023-12-29T10:58:29;9.00;99.90
24802;DHT22;12898;50.520;12.152;2023-12-29T11:00:59;9.00;99.90
24802;DHT22;12898;50.520;12.152;2023-12-29T11:03:27;9.00;99.90
24802;DHT22;12898;50.520;12.152;2023-12-29T11:05:59;9.00;99.90
24802;DHT22;12898;50.520;12.152;2023-12-29T11:08:26;9.00;99.90
24802;DHT22;12898;50.520;12.152;2023-12-29T11:10:51;9.00;99.90
24802;DHT22;12898;50.520;12.152;2023-12-29T11:13:20;9.10;99.90
24802;DHT22;12898;50.520;12.152;2023-12-29T11:15:46;9.10;99.90
24802;DHT22;12898;50.520;12.152;2023-12-29T11:18:14;9.10;99.90
24802;DHT22;12898;50.520;12.152;2023-12-29T11:20:42;9.00;99.90
24802;DHT22;12898;50.520;12.152;2023-12-29T11:23:11;9.00;99.90
24802;DHT22;12898;50.520;12.152;2023-12-29T11:25:44;9.00;99.90
24802;DHT22;12898;50.520;12.152;2023-12-29T11:28:11;9.00;99.90
24802;DHT22;12898;50.520;12.152;2023-12-29T11:30:37;9.00;99.90
24802;DHT22;12898;50.520;12.152;2023-12-29T11:33:18;9.00;99.90
24802;DHT22;12898;50.520;12.152;2023-12-29T11:36:03;9.00;99.90
24802;DHT22;12898;50.520;12.152;2023-12-29T11:41:42;9.00;99.90
24802;DHT22;12898;50.520;12.152;2023-12-29T11:44:25;9.00;99.90
24802;DHT22;12898;50.520;12.152;2023-12-29T11:46:56;9.10;99.90
24802;DHT22;12898;50.520;12.152;2023-12-29T11:49:25;9.20;99.90
24802;DHT22;12898;50.520;12.152;2023-12-29T11:51:52;9.20;99.90
24802;DHT22;12898;50.520;12.152;2023-12-29T11:54:27;9.20;99.90
24802;DHT22;12898;50.520;12.152;2023-12-29T11:56:54;9.30;99.90
24802;DHT22;12898;50.520;12.152;2023-12-29T12:01:58;9.40;99.90
24802;DHT22;12898;50.520;12.152;2023-12-29T12:04:42;9.40;99.90
24802;DHT22;12898;50.520;12.152;2023-12-29T12:07:16;9.50;99.90
24802;DHT22;12898;50.520;12.152;2023-12-29T12:12:47;9.60;99.90
24802;DHT22;12898;50.520;12.152;2023-12-29T12:18:00;9.60;99.90
24802;DHT22;12898;50.520;12.152;2023-12-29T12:20:26;9.60;99.90
24802;DHT22;12898;50.520;12.152;2023-12-29T12:23:17;9.60;99.90
24802;DHT22;12898;50.520;12.152;2023-12-29T12:25:45;9.70;99.90
24802;DHT22;12898;50.520;12.152;2023-12-29T12:28:14;9.70;99.90
24802;DHT22;12898;50.520;12.152;2023-12-29T12:30:40;9.70;99.90
24802;DHT22;12898;50.520;12.152;2023-12-29T12:33:06;9.70;99.90
24802;DHT22;12898;50.520;12.152;2023-12-29T12:35:32;9.70;99.90
24802;DHT22;12898;50.520;12.152;2023-12-29T12:38:14;9.70;99.90
24802;DHT22;12898;50.520;12.152;2023-12-29T12:40:45;9.70;99.90
24802;DHT22;12898;50.520;12.152;2023-12-29T12:43:14;9.80;99.90
24802;DHT22;12898;50.520;12.152;2023-12-29T12:45:53;9.70;99.90
24802;DHT22;12898;50.520;12.152;2023-12-29T12:48:43;9.70;99.90
24802;DHT22;12898;50.520;12.152;2023-12-29T12:51:11;9.70;99.90
24802;DHT22;12898;50.520;12.152;2023-12-29T12:53:44;9.70;99.90
24802;DHT22;12898;50.520;12.152;2023-12-29T12:56:10;9.70;99.90
24802;DHT22;12898;50.520;12.152;2023-12-29T12:58:37;9.60;99.90
24802;DHT22;12898;50.520;12.152;2023-12-29T13:01:03;9.70;99.90
24802;DHT22;12898;50.520;12.152;2023-12-29T13:03:30;9.80;99.90
24802;DHT22;12898;50.520;12.152;2023-12-29T13:05:57;9.80;99.90
24802;DHT22;12898;50.520;12.152;2023-12-29T13:08:24;9.80;99.90
24802;DHT22;12898;50.520;12.152;2023-12-29T13:10:51;9.80;99.90
24802;DHT22;12898;50.520;12.152;2023-12-29T13:13:18;9.90;99.90
24802;DHT22;12898;50.520;12.152;2023-12-29T13:15:48;9.90;99.90
24802;DHT22;12898;50.520;12.152;2023-12-29T13:18:15;9.90;99.90
24802;DHT22;12898;50.520;12.152;2023-12-29T13:20:47;9.90;99.90
24802;DHT22;12898;50.520;12.152;2023-12-29T13:23:14;9.90;99.90
24802;DHT22;12898;50.520;12.152;2023-12-29T13:25:41;9.80;99.90
24802;DHT22;12898;50.520;12.152;2023-12-29T13:28:08;9.90;99.90
24802;DHT22;12898;50.520;12.152;2023-12-29T13:30:35;9.90;99.90
24802;DHT22;12898;50.520;12.152;2023-12-29T13:36:07;9.90;99.90
24802;DHT22;12898;50.520;12.152;2023-12-29T13:38:47;9.90;99.90
24802;DHT22;12898;50.520;12.152;2023-12-29T13:41:18;9.90;99.90
24802;DHT22;12898;50.520;12.152;2023-12-29T13:43:45;9.90;99.90
24802;DHT22;12898;50.520;12.152;2023-12-29T13:46:12;9.80;99.90
24802;DHT22;12898;50.520;12.152;2023-12-29T13:48:39;9.80;99.90
24802;DHT22;12898;50.520;12.152;2023-12-29T13:51:05;9.70;99.90
24802;DHT22;12898;50.520;12.152;2023-12-29T13:53:32;9.80;99.90
24802;DHT22;12898;50.520;12.152;2023-12-29T13:56:10;9.80;99.90
24802;DHT22;12898;50.520;12.152;2023-12-29T13:58:36;9.80;99.90
24802;DHT22;12898;50.520;12.152;2023-12-29T14:01:06;9.80;99.90
24802;DHT22;12898;50.520;12.152;2023-12-29T14:03:58;9.80;99.90
24802;DHT22;12898;50.520;12.152;2023-12-29T14:06:41;9.90;99.90
24802;DHT22;12898;50.520;12.152;2023-12-29T14:09:15;9.90;99.90
24802;DHT22;12898;50.520;12.152;2023-12-29T14:11:49;9.90;99.90
24802;DHT22;12898;50.520;12.152;2023-12-29T14:14:26;9.90;99.90
24802;DHT22;12898;50.520;12.152;2023-12-29T14:16:53;9.80;99.90
24802;DHT22;12898;50.520;12.152;2023-12-29T14:19:19;9.80;99.90
24802;DHT22;12898;50.520;12.152;2023-12-29T14:21:47;9.80;99.90
24802;DHT22;12898;50.520;12.152;2023-12-29T14:24:16;9.70;99.90
24802;DHT22;12898;50.520;12.152;2023-12-29T14:26:54;9.70;99.90
24802;DHT22;12898;50.520;12.152;2023-12-29T14:29:25;9.70;99.90
24802;DHT22;12898;50.520;12.152;2023-12-29T14:31:51;9.60;99.90
24802;DHT22;12898;50.520;12.152;2023-12-29T14:34:17;9.60;99.90
24802;DHT22;12898;50.520;12.152;2023-12-29T14:36:44;9.50;99.90
24802;DHT22;12898;50.520;12.152;2023-12-29T14:39:11;9.40;99.90
24802;DHT22;12898;50.520;12.152;2023-12-29T14:41:37;9.40;99.90
24802;DHT22;12898;50.520;12.152;2023-12-29T14:44:03;9.40;99.90
24802;DHT22;12898;50.520;12.152;2023-12-29T14:46:29;9.30;99.90
24802;DHT22;12898;50.520;12.152;2023-12-29T14:48:57;9.30;99.90
24802;DHT22;12898;50.520;12.152;2023-12-29T14:51:26;9.30;99.90
24802;DHT22;12898;50.520;12.152;2023-12-29T14:53:52;9.30;99.90
24802;DHT22;12898;50.520;12.152;2023-12-29T14:56:18;9.30;99.90
24802;DHT22;12898;50.520;12.152;2023-12-29T14:58:44;9.30;99.90
24802;DHT22;12898;50.520;12.152;2023-12-29T15:01:11;9.20;99.90
24802;DHT22;12898;50.520;12.152;2023-12-29T15:03:37;9.20;99.90
24802;DHT22;12898;50.520;12.152;2023-12-29T15:06:03;9.10;99.90
24802;DHT22;12898;50.520;12.152;2023-12-29T15:08:29;9.10;99.90
24802;DHT22;12898;50.520;12.152;2023-12-29T15:11:01;9.00;99.90
24802;DHT22;12898;50.520;12.152;2023-12-29T15:13:28;9.00;99.90
24802;DHT22;12898;50.520;12.152;2023-12-29T15:15:56;8.90;99.90
24802;DHT22;12898;50.520;12.152;2023-12-29T15:18:23;8.90;99.90
24802;DHT22;12898;50.520;12.152;2023-12-29T15:20:49;9.00;99.90
24802;DHT22;12898;50.520;12.152;2023-12-29T15:23:14;8.90;99.90
24802;DHT22;12898;50.520;12.152;2023-12-29T15:25:40;9.00;99.90
24802;DHT22;12898;50.520;12.152;2023-12-29T15:28:07;9.00;99.90
24802;DHT22;12898;50.520;12.152;2023-12-29T15:30:33;9.00;99.90
24802;DHT22;12898;50.520;12.152;2023-12-29T15:32:59;9.00;99.90
24802;DHT22;12898;50.520;12.152;2023-12-29T15:35:25;9.00;99.90
24802;DHT22;12898;50.520;12.152;2023-12-29T15:37:50;9.00;99.90
24802;DHT22;12898;50.520;12.152;2023-12-29T15:40:16;9.00;99.90
24802;DHT22;12898;50.520;12.152;2023-12-29T15:42:42;9.00;99.90
24802;DHT22;12898;50.520;12.152;2023-12-29T15:45:08;9.00;99.90
24802;DHT22;12898;50.520;12.152;2023-12-29T15:47:35;9.00;99.90